createdAt,value
2023-01-21T00:02:08.229Z,98427.14
2023-01-21T00:04:38.224Z,98427.98
2023-01-21T00:07:07.703Z,98430.89
2023-01-21T00:09:38.775Z,98431.23
2023-01-21T00:12:07.008Z,98438.06
2023-01-21T00:14:35.141Z,98439.95
2023-01-21T00:17:03.605Z,98443.88
2023-01-21T00:19:32.237Z,98446.61
2023-01-21T00:22:00.406Z,98446.79
2023-01-21T00:24:28.661Z,98452.92
2023-01-21T00:26:59.677Z,98456.19
2023-01-21T00:29:31.067Z,98454.64
2023-01-21T00:32:00.085Z,98453.78
2023-01-21T00:34:28.417Z,98454.12
2023-01-21T00:36:56.711Z,98454.30
2023-01-21T00:39:31.267Z,98462.85
2023-01-21T00:42:05.092Z,98466.42
2023-01-21T00:44:33.482Z,98470.19
2023-01-21T00:47:04.094Z,98475.15
2023-01-21T00:49:32.985Z,98472.75
2023-01-21T00:52:01.435Z,98471.73
2023-01-21T00:54:32.254Z,98466.95
2023-01-21T00:57:00.476Z,98474.80
2023-01-21T00:59:30.086Z,98473.44
2023-01-21T01:01:58.644Z,98475.65
2023-01-21T01:04:27.084Z,98472.75
2023-01-21T01:06:55.269Z,98473.92
2023-01-21T01:09:29.058Z,98472.40
2023-01-21T01:11:59.686Z,98471.73
2023-01-21T01:14:28.133Z,98471.21
2023-01-21T01:16:56.284Z,98474.29
2023-01-21T01:19:25.158Z,98476.69
2023-01-21T01:21:53.425Z,98484.03
2023-01-21T01:24:21.675Z,98482.48
2023-01-21T01:26:49.840Z,98479.08
2023-01-21T01:29:18.687Z,98480.27
2023-01-21T01:31:46.954Z,98476.17
2023-01-21T01:34:20.242Z,98477.20
2023-01-21T01:36:49.176Z,98472.07
2023-01-21T01:39:17.589Z,98470.53
2023-01-21T01:41:46.133Z,98468.31
2023-01-21T01:44:51.887Z,98468.82
2023-01-21T01:47:31.341Z,98477.88
2023-01-21T01:50:01.565Z,98477.02
2023-01-21T01:52:33.507Z,98481.11
2023-01-21T01:55:04.322Z,98476.67
2023-01-21T01:57:39.829Z,98483.17
2023-01-21T02:00:11.455Z,98489.16
2023-01-21T02:02:42.161Z,98491.03
2023-01-21T02:05:11.393Z,98498.39
2023-01-21T02:07:42.850Z,98500.27
2023-01-21T02:10:14.458Z,98504.52
2023-01-21T02:12:44.401Z,98496.67
2023-01-21T02:15:17.720Z,98496.67
2023-01-21T02:18:24.081Z,98498.04
2023-01-21T02:21:11.155Z,98498.88
2023-01-21T02:24:10.194Z,98493.08
2023-01-21T02:26:41.234Z,98491.02
2023-01-21T02:29:09.547Z,98488.28
2023-01-21T02:31:47.040Z,98486.23
2023-01-21T02:34:50.783Z,98488.27
2023-01-21T02:38:12.598Z,98490.66
2023-01-21T02:41:14.417Z,98487.23
2023-01-21T02:44:04.593Z,98484.67
2023-01-21T02:47:18.684Z,98477.48
2023-01-21T02:49:53.395Z,98482.92
2023-01-21T02:52:25.107Z,98487.35
2023-01-21T02:54:59.428Z,98488.69
2023-01-21T02:58:05.313Z,98493.13
2023-01-21T03:00:54.807Z,98496.20
2023-01-21T03:03:47.921Z,98495.35
2023-01-21T03:06:32.367Z,98504.39
2023-01-21T03:09:22.760Z,98514.29
2023-01-21T03:12:00.254Z,98517.20
2023-01-21T03:15:09.379Z,98528.79
2023-01-21T03:17:48.311Z,98527.44
2023-01-21T03:20:25.476Z,98528.45
2023-01-21T03:23:00.368Z,98527.42
2023-01-21T03:25:31.996Z,98528.10
2023-01-21T03:28:03.810Z,98530.14
2023-01-21T03:30:34.836Z,98533.36
2023-01-21T03:33:04.623Z,98542.06
2023-01-21T03:35:37.717Z,98546.15
2023-01-21T03:38:08.791Z,98549.56
2023-01-21T03:40:44.912Z,98546.85
2023-01-21T03:43:13.322Z,98551.45
2023-01-21T03:45:52.908Z,98554.35
2023-01-21T03:48:42.479Z,98543.92
2023-01-21T03:51:18.518Z,98534.54
2023-01-21T03:53:52.263Z,98536.92
2023-01-21T03:56:20.502Z,98534.35
2023-01-21T03:58:48.818Z,98536.73
2023-01-21T04:01:17.144Z,98553.09
2023-01-21T04:03:45.549Z,98557.67
2023-01-21T04:06:16.241Z,98555.95
2023-01-21T04:08:47.832Z,98557.97
2023-01-21T04:11:16.577Z,98548.58
2023-01-21T04:13:44.948Z,98540.70
2023-01-21T04:16:16.636Z,98539.14
2023-01-21T04:18:45.027Z,98535.39
2023-01-21T04:21:16.175Z,98530.61
2023-01-21T04:23:44.657Z,98528.91
2023-01-21T04:26:16.602Z,98527.03
2023-01-21T04:28:48.037Z,98529.94
2023-01-21T04:31:16.366Z,98534.20
2023-01-21T04:33:44.754Z,98536.43
2023-01-21T04:36:13.726Z,98536.08
2023-01-21T04:38:42.294Z,98533.70
2023-01-21T04:41:10.467Z,98538.15
2023-01-21T04:43:38.746Z,98538.84
2023-01-21T04:46:06.967Z,98541.73
2023-01-21T04:48:35.429Z,98547.02
2023-01-21T04:51:04.132Z,98548.71
2023-01-21T04:53:32.590Z,98551.42
2023-01-21T04:56:01.129Z,98555.34
2023-01-21T04:58:29.499Z,98549.70
2023-01-21T05:00:57.781Z,98546.79
2023-01-21T05:03:29.030Z,98551.73
2023-01-21T05:05:57.276Z,98559.58
2023-01-21T05:08:25.482Z,98558.89
2023-01-21T05:10:53.627Z,98571.83
2023-01-21T05:13:21.906Z,98590.90
2023-01-21T05:15:50.148Z,98603.45
2023-01-21T05:18:18.571Z,98608.38
2023-01-21T05:20:46.633Z,98615.15
2023-01-21T05:23:18.143Z,98606.60
2023-01-21T05:25:49.287Z,98602.14
2023-01-21T05:28:17.652Z,98620.17
2023-01-21T05:30:45.949Z,98624.07
2023-01-21T05:33:14.225Z,98622.70
2023-01-21T05:35:42.376Z,98626.95
2023-01-21T05:38:13.220Z,98620.45
2023-01-21T05:40:41.472Z,98618.71
2023-01-21T05:43:09.703Z,98627.89
2023-01-21T05:45:37.886Z,98638.59
2023-01-21T05:48:06.417Z,98647.28
2023-01-21T05:50:34.746Z,98648.11
2023-01-21T05:53:03.154Z,98646.91
2023-01-21T05:55:31.153Z,98656.25
2023-01-21T05:57:59.254Z,98655.25
2023-01-21T06:00:27.298Z,98653.39
2023-01-21T06:02:55.701Z,98661.25
2023-01-21T06:05:24.057Z,98667.27
2023-01-21T06:07:52.365Z,98672.06
2023-01-21T06:10:20.660Z,98676.87
2023-01-21T06:12:52.167Z,98671.48
2023-01-21T06:15:20.648Z,98670.17
2023-01-21T06:17:48.811Z,98659.45
2023-01-21T06:20:17.422Z,98659.62
2023-01-21T06:22:45.727Z,98663.05
2023-01-21T06:25:13.956Z,98671.43
2023-01-21T06:27:42.227Z,98686.49
2023-01-21T06:30:11.462Z,98687.08
2023-01-21T06:32:39.835Z,98685.80
2023-01-21T06:35:08.633Z,98688.55
2023-01-21T06:37:36.784Z,98702.59
2023-01-21T06:40:08.870Z,98715.23
2023-01-21T06:42:40.301Z,98721.73
2023-01-21T06:45:11.365Z,98728.89
2023-01-21T06:47:46.589Z,98726.63
2023-01-21T06:50:17.256Z,98730.74
2023-01-21T06:52:50.010Z,98730.91
2023-01-21T06:55:18.398Z,98731.77
2023-01-21T06:57:46.505Z,98734.83
2023-01-21T07:00:20.451Z,98725.98
2023-01-21T07:02:58.490Z,98719.47
2023-01-21T07:05:29.720Z,98730.04
2023-01-21T07:07:58.393Z,98723.40
2023-01-21T07:10:26.927Z,98719.98
2023-01-21T07:12:55.220Z,98731.42
2023-01-21T07:15:23.276Z,98736.56
2023-01-21T07:17:54.062Z,98731.65
2023-01-21T07:20:22.832Z,98730.49
2023-01-21T07:22:53.665Z,98729.52
2023-01-21T07:25:22.064Z,98731.27
2023-01-21T07:27:50.401Z,98725.52
2023-01-21T07:30:20.326Z,98728.67
2023-01-21T07:32:49.191Z,98732.48
2023-01-21T07:35:17.685Z,98749.29
2023-01-21T07:37:45.995Z,98757.03
2023-01-21T07:40:16.658Z,98744.98
2023-01-21T07:42:50.582Z,98741.46
2023-01-21T07:45:20.436Z,98753.31
2023-01-21T07:47:49.228Z,98765.69
2023-01-21T07:50:17.792Z,98772.95
2023-01-21T07:52:46.177Z,98781.20
2023-01-21T07:55:14.766Z,98781.75
2023-01-21T07:57:43.471Z,98784.35
2023-01-21T08:00:12.638Z,98784.70
2023-01-21T08:02:41.106Z,98785.75
2023-01-21T08:05:10.318Z,98786.96
2023-01-21T08:07:38.673Z,98789.88
2023-01-21T08:10:09.880Z,98801.52
2023-01-21T08:12:38.319Z,98809.91
2023-01-21T08:15:10.648Z,98822.06
2023-01-21T08:17:48.904Z,98823.29
2023-01-21T08:20:17.200Z,98829.27
2023-01-21T08:22:45.455Z,98831.50
2023-01-21T08:25:13.838Z,98828.94
2023-01-21T08:27:42.173Z,98824.14
2023-01-21T08:30:10.950Z,98814.22
2023-01-21T08:32:39.694Z,98805.30
2023-01-21T08:35:08.553Z,98810.44
2023-01-21T08:37:36.869Z,98818.84
2023-01-21T08:40:06.408Z,98828.77
2023-01-21T08:42:35.042Z,98839.04
2023-01-21T08:45:03.831Z,98840.05
2023-01-21T08:47:37.892Z,98834.94
2023-01-21T08:50:07.997Z,98839.90
2023-01-21T08:52:36.492Z,98849.65
2023-01-21T08:55:08.060Z,98865.42
2023-01-21T08:57:36.640Z,98879.47
2023-01-21T09:00:05.762Z,98884.42
2023-01-21T09:02:36.407Z,98882.89
2023-01-21T09:05:05.368Z,98886.66
2023-01-21T09:07:33.778Z,98883.57
2023-01-21T09:10:03.975Z,98879.45
2023-01-21T09:12:32.367Z,98879.46
2023-01-21T09:15:00.533Z,98878.61
2023-01-21T09:17:28.909Z,98875.52
2023-01-21T09:19:57.043Z,98870.55
2023-01-21T09:22:25.363Z,98871.08
2023-01-21T09:24:53.985Z,98876.91
2023-01-21T09:27:27.299Z,98881.20
2023-01-21T09:29:58.742Z,98887.87
2023-01-21T09:32:26.885Z,98890.78
2023-01-21T09:34:55.337Z,98889.94
2023-01-21T09:37:23.747Z,98879.64
2023-01-21T09:39:51.988Z,98873.98
2023-01-21T09:42:25.564Z,98878.27
2023-01-21T09:44:56.815Z,98879.98
2023-01-21T09:47:33.727Z,98881.52
2023-01-21T09:50:14.889Z,98873.63
2023-01-21T09:52:49.642Z,98874.15
2023-01-21T09:55:34.046Z,98882.70
2023-01-21T09:58:11.909Z,98885.78
2023-01-21T10:00:52.933Z,98889.38
2023-01-21T10:03:55.572Z,98883.05
2023-01-21T10:06:48.549Z,98889.04
2023-01-21T10:10:18.219Z,98904.29
2023-01-21T10:13:34.181Z,98905.66
2023-01-21T10:16:21.341Z,98901.90
2023-01-21T10:18:55.989Z,98902.24
2023-01-21T10:21:35.968Z,98890.42
2023-01-21T10:24:16.156Z,98892.98
2023-01-21T10:26:48.402Z,98896.73
2023-01-21T10:29:19.702Z,98898.77
2023-01-21T10:32:07.307Z,98897.55
2023-01-21T10:34:52.499Z,98887.62
2023-01-21T10:37:48.555Z,98890.34
2023-01-21T10:40:45.688Z,98890.67
2023-01-21T10:43:26.028Z,98887.59
2023-01-21T10:46:44.861Z,98875.89
2023-01-21T10:49:51.518Z,98876.54
2023-01-21T10:52:34.587Z,98870.48
2023-01-21T10:55:43.893Z,98857.05
2023-01-21T10:58:39.025Z,98865.39
2023-01-21T11:01:16.594Z,98864.35
2023-01-21T11:03:51.126Z,98852.64
2023-01-21T11:06:24.490Z,98852.30
2023-01-21T11:08:58.716Z,98850.71
2023-01-21T11:11:35.434Z,98848.10
2023-01-21T11:14:03.897Z,98840.37
2023-01-21T11:16:40.817Z,98833.52
2023-01-21T11:19:16.362Z,98834.24
2023-01-21T11:22:09.017Z,98844.88
2023-01-21T11:24:46.323Z,98844.86
2023-01-21T11:27:41.892Z,98845.88
2023-01-21T11:30:50.715Z,98843.30
2023-01-21T11:33:29.792Z,98843.27
2023-01-21T11:36:13.120Z,98840.14
2023-01-21T11:38:45.600Z,98839.06
2023-01-21T11:41:13.860Z,98840.59
2023-01-21T11:43:48.016Z,98846.77
2023-01-21T11:46:38.827Z,98844.90
2023-01-21T11:49:06.954Z,98839.93
2023-01-21T11:51:36.986Z,98844.95
2023-01-21T11:54:11.005Z,98846.80
2023-01-21T11:56:43.358Z,98841.52
2023-01-21T11:59:35.904Z,98836.89
2023-01-21T12:02:26.347Z,98834.14
2023-01-21T12:05:09.166Z,98837.07
2023-01-21T12:07:42.557Z,98836.02
2023-01-21T12:10:16.759Z,98829.18
2023-01-21T12:13:32.163Z,98825.77
2023-01-21T12:16:13.251Z,98823.73
2023-01-21T12:19:22.110Z,98819.95
2023-01-21T12:22:13.781Z,98820.95
2023-01-21T12:25:06.482Z,98828.83
2023-01-21T12:27:47.634Z,98830.17
2023-01-21T12:30:38.115Z,98837.67
2023-01-21T12:33:36.539Z,98833.00
2023-01-21T12:36:11.166Z,98846.13
2023-01-21T12:38:42.673Z,98846.93
2023-01-21T12:41:19.028Z,98847.22
2023-01-21T12:43:54.885Z,98853.51
2023-01-21T12:46:46.562Z,98861.52
2023-01-21T12:49:25.065Z,98853.94
2023-01-21T12:52:00.071Z,98850.54
2023-01-21T12:54:39.169Z,98846.12
2023-01-21T12:57:20.665Z,98843.55
2023-01-21T12:59:57.144Z,98847.57
2023-01-21T13:02:49.487Z,98848.62
2023-01-21T13:05:34.507Z,98834.80
2023-01-21T13:08:46.022Z,98830.17
2023-01-21T13:11:23.520Z,98831.89
2023-01-21T13:14:15.618Z,98837.86
2023-01-21T13:16:49.842Z,98833.88
2023-01-21T13:19:18.000Z,98826.80
2023-01-21T13:22:26.596Z,98826.94
2023-01-21T13:25:13.239Z,98837.91
2023-01-21T13:28:07.011Z,98838.41
2023-01-21T13:31:02.123Z,98841.34
2023-01-21T13:34:18.061Z,98852.66
2023-01-21T13:37:11.759Z,98856.78
2023-01-21T13:39:49.707Z,98862.29
2023-01-21T13:42:30.307Z,98856.58
2023-01-21T13:45:30.549Z,98854.81
2023-01-21T13:48:49.982Z,98848.76
2023-01-21T13:51:36.938Z,98849.33
2023-01-21T13:54:42.378Z,98852.41
2023-01-21T13:57:48.428Z,98851.80
2023-01-21T14:00:24.569Z,98863.73
2023-01-21T14:03:14.329Z,98862.39
2023-01-21T14:05:51.560Z,98868.13
2023-01-21T14:08:33.844Z,98866.95
2023-01-21T14:11:23.964Z,98866.50
2023-01-21T14:14:08.308Z,98869.61
2023-01-21T14:16:45.908Z,98874.29
2023-01-21T14:19:20.474Z,98878.29
2023-01-21T14:21:48.468Z,98883.28
2023-01-21T14:24:51.948Z,98875.07
2023-01-21T14:27:40.512Z,98874.06
2023-01-21T14:30:37.453Z,98874.59
2023-01-21T14:33:46.257Z,98879.25
2023-01-21T14:36:29.699Z,98885.27
2023-01-21T14:39:19.492Z,98885.45
2023-01-21T14:42:11.828Z,98886.16
2023-01-21T14:45:04.971Z,98897.48
2023-01-21T14:47:38.646Z,98894.92
2023-01-21T14:50:10.442Z,98902.84
2023-01-21T14:52:46.699Z,98900.60
2023-01-21T14:55:36.696Z,98904.73
2023-01-21T14:58:23.089Z,98910.23
2023-01-21T15:00:52.005Z,98905.27
2023-01-21T15:03:30.488Z,98895.14
2023-01-21T15:06:10.875Z,98893.08
2023-01-21T15:08:46.251Z,98891.54
2023-01-21T15:11:21.084Z,98892.21
2023-01-21T15:14:11.235Z,98895.66
2023-01-21T15:16:41.381Z,98897.73
2023-01-21T15:19:14.658Z,98904.75
2023-01-21T15:21:45.636Z,98907.67
2023-01-21T15:24:41.793Z,98920.70
2023-01-21T15:27:28.215Z,98924.98
2023-01-21T15:29:56.965Z,98931.70
2023-01-21T15:32:39.287Z,98934.45
2023-01-21T15:35:29.701Z,98942.86
2023-01-21T15:38:17.568Z,98948.20
2023-01-21T15:40:53.715Z,98953.05
2023-01-21T15:43:49.615Z,98961.45
2023-01-21T15:46:42.428Z,98963.35
2023-01-21T15:49:16.442Z,98957.36
2023-01-21T15:52:12.475Z,98958.23
2023-01-21T15:54:54.474Z,98959.42
2023-01-21T15:58:07.215Z,98951.88
2023-01-21T16:01:06.111Z,98944.35
2023-01-21T16:03:44.593Z,98927.20
2023-01-21T16:06:31.349Z,98921.02
2023-01-21T16:09:12.252Z,98924.29
2023-01-21T16:12:16.468Z,98927.89
2023-01-21T16:15:03.392Z,98928.06
2023-01-21T16:18:12.224Z,98936.29
2023-01-21T16:20:50.234Z,98944.52
2023-01-21T16:23:22.625Z,98956.35
2023-01-21T16:25:53.358Z,98963.05
2023-01-21T16:28:21.824Z,98963.03
2023-01-21T16:31:01.227Z,98963.20
2023-01-21T16:33:33.264Z,98980.02
2023-01-21T16:36:07.425Z,98979.34
2023-01-21T16:38:37.884Z,98975.41
2023-01-21T16:41:15.463Z,98975.40
2023-01-21T16:43:52.819Z,98968.02
2023-01-21T16:46:39.060Z,98978.16
2023-01-21T16:49:15.793Z,98979.89
2023-01-21T16:52:00.157Z,98979.73
2023-01-21T16:54:46.841Z,98995.52
2023-01-21T16:57:19.488Z,99007.36
2023-01-21T16:59:52.345Z,99013.02
2023-01-21T17:02:25.802Z,99016.78
2023-01-21T17:04:57.765Z,99024.50
2023-01-21T17:07:32.899Z,99024.33
2023-01-21T17:10:17.764Z,99020.20
2023-01-21T17:12:59.618Z,99012.99
2023-01-21T17:15:41.556Z,99021.56
2023-01-21T17:18:26.898Z,99028.05
2023-01-21T17:21:03.869Z,99034.39
2023-01-21T17:23:58.597Z,99038.16
2023-01-21T17:26:41.879Z,99040.73
2023-01-21T17:29:31.589Z,99038.65
2023-01-21T17:32:02.586Z,99041.56
2023-01-21T17:34:36.615Z,99045.52
2023-01-21T17:37:24.802Z,99040.89
2023-01-21T17:39:53.296Z,99047.41
2023-01-21T17:42:24.266Z,99041.42
2023-01-21T17:44:55.759Z,99040.91
2023-01-21T17:47:27.998Z,99036.63
2023-01-21T17:50:20.567Z,99038.02
2023-01-21T17:53:09.514Z,99039.06
2023-01-21T17:55:40.888Z,99046.42
2023-01-21T17:58:52.827Z,99054.98
2023-01-21T18:01:27.161Z,99062.20
2023-01-21T18:03:58.661Z,99069.41
2023-01-21T18:06:38.715Z,99067.88
2023-01-21T18:09:13.502Z,99070.79
2023-01-21T18:11:43.328Z,99080.73
2023-01-21T18:14:18.949Z,99079.20
2023-01-21T18:16:50.702Z,99075.75
2023-01-21T18:19:33.249Z,99070.60
2023-01-21T18:22:04.728Z,99065.45
2023-01-21T18:24:34.839Z,99066.81
2023-01-21T18:27:03.407Z,99059.10
2023-01-21T18:29:32.190Z,99056.35
2023-01-21T18:32:00.451Z,99056.16
2023-01-21T18:34:35.100Z,99048.10
2023-01-21T18:37:13.547Z,99035.75
2023-01-21T18:39:42.074Z,99034.20
2023-01-21T18:42:27.601Z,99034.21
2023-01-21T18:44:58.285Z,99039.51
2023-01-21T18:47:32.816Z,99038.13
2023-01-21T18:50:03.407Z,99024.95
2023-01-21T18:52:31.891Z,99017.23
2023-01-21T18:55:00.596Z,99026.48
2023-01-21T18:57:28.763Z,99026.33
2023-01-21T19:00:04.238Z,99024.80
2023-01-21T19:02:36.371Z,99030.09
2023-01-21T19:05:07.192Z,99035.42
2023-01-21T19:07:35.550Z,99041.92
2023-01-21T19:10:04.118Z,99042.61
2023-01-21T19:12:32.592Z,99047.55
2023-01-21T19:15:04.914Z,99047.22
2023-01-21T19:17:33.651Z,99046.35
2023-01-21T19:20:02.180Z,99049.09
2023-01-21T19:22:30.598Z,99049.58
2023-01-21T19:24:58.899Z,99042.20
2023-01-21T19:27:32.571Z,99042.36
2023-01-21T19:30:01.279Z,99051.77
2023-01-21T19:32:29.388Z,99053.80
2023-01-21T19:34:57.894Z,99056.52
2023-01-21T19:37:26.250Z,99059.76
2023-01-21T19:39:54.404Z,99070.52
2023-01-21T19:42:22.937Z,99071.36
2023-01-21T19:44:51.535Z,99078.21
2023-01-21T19:47:26.595Z,99086.94
2023-01-21T19:49:55.193Z,99088.61
2023-01-21T19:52:23.624Z,99083.80
2023-01-21T19:54:54.765Z,99087.56
2023-01-21T19:57:23.982Z,99087.23
2023-01-21T19:59:53.564Z,99088.95
2023-01-21T20:02:21.948Z,99086.89
2023-01-21T20:04:50.432Z,99068.58
2023-01-21T20:07:18.741Z,99069.11
2023-01-21T20:09:47.137Z,99067.77
2023-01-21T20:12:15.481Z,99073.41
2023-01-21T20:14:43.757Z,99080.95
2023-01-21T20:17:14.098Z,99079.77
2023-01-21T20:19:42.354Z,99073.95
2023-01-21T20:22:12.646Z,99070.00
2023-01-21T20:24:43.616Z,99071.90
2023-01-21T20:27:14.371Z,99068.65
2023-01-21T20:29:55.575Z,99070.55
2023-01-21T20:32:30.637Z,99073.45
2023-01-21T20:34:59.086Z,99077.92
2023-01-21T20:37:27.315Z,99077.77
2023-01-21T20:39:55.555Z,99083.60
2023-01-21T20:42:24.077Z,99098.85
2023-01-21T20:44:54.907Z,99109.65
2023-01-21T20:47:37.877Z,99109.29
2023-01-21T20:50:20.440Z,99114.42
2023-01-21T20:52:49.686Z,99121.98
2023-01-21T20:55:20.961Z,99127.12
2023-01-21T20:57:49.960Z,99121.47
2023-01-21T21:00:22.948Z,99118.38
2023-01-21T21:02:51.484Z,99122.14
2023-01-21T21:05:20.391Z,99122.66
2023-01-21T21:07:51.994Z,99125.55
2023-01-21T21:10:36.230Z,99130.67
2023-01-21T21:13:04.813Z,99131.02
2023-01-21T21:15:36.475Z,99136.32
2023-01-21T21:18:05.685Z,99142.29
2023-01-21T21:20:37.056Z,99141.26
2023-01-21T21:23:07.481Z,99134.22
2023-01-21T21:25:40.501Z,99133.54
2023-01-21T21:28:11.146Z,99125.13
2023-01-21T21:30:39.524Z,99123.92
2023-01-21T21:33:12.337Z,99130.77
2023-01-21T21:35:41.190Z,99117.60
2023-01-21T21:38:17.123Z,99110.91
2023-01-21T21:40:47.395Z,99109.90
2023-01-21T21:43:33.022Z,99111.59
2023-01-21T21:46:25.110Z,99118.61
2023-01-21T21:48:53.934Z,99132.13
2023-01-21T21:51:22.665Z,99123.58
2023-01-21T21:53:52.061Z,99121.53
2023-01-21T21:56:23.006Z,99118.10
2023-01-21T21:58:54.539Z,99120.50
2023-01-21T22:01:30.402Z,99116.73
2023-01-21T22:04:04.893Z,99118.46
2023-01-21T22:06:36.320Z,99109.02
2023-01-21T22:09:07.189Z,99108.17
2023-01-21T22:11:35.444Z,99113.49
2023-01-21T22:14:04.477Z,99114.52
2023-01-21T22:16:36.452Z,99120.86
2023-01-21T22:19:05.213Z,99115.54
2023-01-21T22:21:36.350Z,99112.23
2023-01-21T22:24:08.299Z,99114.80
2023-01-21T22:26:40.217Z,99104.67
2023-01-21T22:29:08.593Z,99106.52
2023-01-21T22:31:46.766Z,99112.31
2023-01-21T22:34:15.569Z,99116.40
2023-01-21T22:36:47.159Z,99121.34
2023-01-21T22:39:23.773Z,99124.40
2023-01-21T22:42:00.338Z,99127.45
2023-01-21T22:44:31.687Z,99124.02
2023-01-21T22:46:59.998Z,99129.81
2023-01-21T22:49:30.678Z,99134.44
2023-01-21T22:52:02.134Z,99141.10
2023-01-21T22:54:30.440Z,99144.69
2023-01-21T22:57:01.385Z,99141.63
2023-01-21T22:59:31.891Z,99143.85
2023-01-21T23:02:02.471Z,99144.71
2023-01-21T23:04:33.255Z,99151.24
2023-01-21T23:07:03.948Z,99156.58
2023-01-21T23:09:32.935Z,99155.06
2023-01-21T23:12:01.477Z,99168.25
2023-01-21T23:14:32.858Z,99170.68
2023-01-21T23:17:01.340Z,99170.05
2023-01-21T23:19:29.640Z,99158.12
2023-01-21T23:22:00.845Z,99144.09
2023-01-21T23:24:32.025Z,99162.63
2023-01-21T23:27:00.575Z,99177.16
2023-01-21T23:29:32.017Z,99180.73
2023-01-21T23:32:00.787Z,99182.42
2023-01-21T23:34:29.330Z,99182.27
2023-01-21T23:36:57.652Z,99183.11
2023-01-21T23:39:25.700Z,99176.42
2023-01-21T23:41:55.058Z,99166.48
2023-01-21T23:44:25.541Z,99153.62
2023-01-21T23:46:54.144Z,99147.60
2023-01-21T23:49:25.301Z,99138.31
2023-01-21T23:51:53.303Z,99139.14
